createdAt,value
2018-09-29T00:00:45.528Z,9.30
2018-09-29T00:05:48.482Z,9.30
2018-09-29T00:10:51.404Z,9.30
2018-09-29T00:15:54.327Z,9.30
2018-09-29T00:20:57.342Z,9.30
2018-09-29T00:26:00.441Z,9.30
2018-09-29T00:31:03.431Z,9.30
2018-09-29T00:36:06.435Z,9.20
2018-09-29T00:41:10.181Z,8.90
2018-09-29T00:46:13.309Z,8.70
2018-09-29T00:51:16.525Z,8.60
2018-09-29T00:56:19.622Z,8.60
2018-09-29T01:01:22.668Z,8.70
2018-09-29T01:06:25.843Z,8.70
2018-09-29T01:11:29.051Z,8.60
2018-09-29T01:16:32.372Z,8.50
2018-09-29T01:21:35.510Z,8.40
2018-09-29T01:26:38.719Z,8.30
2018-09-29T01:31:42.503Z,8.20
2018-09-29T01:36:45.567Z,8.20
2018-09-29T01:41:48.560Z,8.10
2018-09-29T01:46:51.587Z,8.10
2018-09-29T01:51:54.603Z,8.10
2018-09-29T01:56:57.627Z,8.20
2018-09-29T02:02:00.621Z,8.20
2018-09-29T02:07:03.871Z,8.20
2018-09-29T02:12:06.917Z,8.20
2018-09-29T02:17:09.949Z,8.00
2018-09-29T02:22:13.015Z,7.70
2018-09-29T02:27:16.018Z,7.80
2018-09-29T02:32:19.055Z,7.80
2018-09-29T02:37:22.072Z,7.80
2018-09-29T02:42:25.251Z,7.70
2018-09-29T02:47:28.274Z,7.70
2018-09-29T02:52:31.271Z,7.60
2018-09-29T02:57:34.293Z,7.50
2018-09-29T03:02:37.294Z,7.40
2018-09-29T03:07:40.297Z,7.30
2018-09-29T03:12:43.457Z,7.30
2018-09-29T03:17:46.418Z,7.40
2018-09-29T03:22:49.437Z,7.30
2018-09-29T03:27:52.435Z,7.30
2018-09-29T03:32:55.444Z,7.30
2018-09-29T03:37:58.470Z,7.30
2018-09-29T03:43:01.472Z,7.20
2018-09-29T03:48:04.471Z,7.10
2018-09-29T03:53:07.463Z,7.10
2018-09-29T03:58:10.473Z,7.20
2018-09-29T04:03:13.431Z,7.30
2018-09-29T04:08:16.417Z,7.30
2018-09-29T04:13:19.428Z,7.30
2018-09-29T04:18:22.447Z,7.30
2018-09-29T04:23:25.452Z,7.40
2018-09-29T04:28:28.466Z,7.40
2018-09-29T04:33:31.430Z,7.50
2018-09-29T04:38:34.758Z,7.40
2018-09-29T04:43:37.786Z,7.40
2018-09-29T04:48:40.830Z,7.20
2018-09-29T04:53:44.168Z,7.20
2018-09-29T04:58:47.183Z,7.00
2018-09-29T05:03:50.284Z,6.90
2018-09-29T05:08:53.304Z,6.80
2018-09-29T05:13:56.316Z,6.80
2018-09-29T05:18:59.427Z,6.80
2018-09-29T05:24:02.435Z,6.80
2018-09-29T05:29:05.539Z,6.80
2018-09-29T05:34:08.612Z,6.70
2018-09-29T05:39:11.655Z,6.80
2018-09-29T05:44:14.634Z,6.80
2018-09-29T05:49:17.668Z,6.90
2018-09-29T05:54:20.655Z,7.00
2018-09-29T05:59:23.717Z,7.10
2018-09-29T06:04:27.466Z,7.20
2018-09-29T06:09:30.514Z,7.70
2018-09-29T06:14:33.519Z,8.50
2018-09-29T06:19:36.625Z,9.10
2018-09-29T06:24:39.812Z,9.90
2018-09-29T06:29:42.798Z,10.60
2018-09-29T06:34:45.772Z,10.80
2018-09-29T06:39:48.804Z,10.40
2018-09-29T06:44:52.191Z,10.30
2018-09-29T06:49:55.556Z,10.70
2018-09-29T06:54:58.552Z,11.00
2018-09-29T07:00:01.536Z,11.20
2018-09-29T07:05:04.651Z,11.10
2018-09-29T07:10:07.866Z,11.40
2018-09-29T07:15:10.888Z,11.90
2018-09-29T07:20:13.897Z,11.70
2018-09-29T07:25:17.003Z,11.90
2018-09-29T07:30:20.071Z,11.70
2018-09-29T07:35:23.112Z,11.40
2018-09-29T07:40:26.147Z,11.90
2018-09-29T07:45:29.148Z,12.60
2018-09-29T07:50:32.231Z,12.00
2018-09-29T07:55:35.236Z,11.40
2018-09-29T08:00:38.280Z,11.50
2018-09-29T08:05:41.318Z,11.90
2018-09-29T08:10:44.347Z,12.30
2018-09-29T08:15:47.371Z,12.30
2018-09-29T08:20:50.357Z,12.00
2018-09-29T08:25:53.364Z,11.90
2018-09-29T08:30:56.402Z,12.20
2018-09-29T08:35:59.679Z,12.30
2018-09-29T08:41:02.722Z,12.00
2018-09-29T08:46:06.124Z,12.10
2018-09-29T08:51:09.163Z,12.40
2018-09-29T08:56:12.246Z,12.40
2018-09-29T09:01:15.802Z,12.40
2018-09-29T09:06:18.831Z,12.50
2018-09-29T09:11:21.964Z,12.70
2018-09-29T09:16:25.089Z,12.50
2018-09-29T09:21:28.377Z,12.80
2018-09-29T09:26:31.385Z,12.80
2018-09-29T09:31:34.404Z,12.60
2018-09-29T09:36:37.951Z,12.70
2018-09-29T09:41:41.124Z,13.00
2018-09-29T09:46:44.163Z,12.70
2018-09-29T09:51:47.406Z,13.00
2018-09-29T09:56:50.443Z,13.20
2018-09-29T10:01:59.228Z,13.30
2018-09-29T10:07:11.015Z,13.60
2018-09-29T10:12:14.112Z,13.30
2018-09-29T10:17:17.367Z,13.50
2018-09-29T10:22:20.565Z,13.40
2018-09-29T10:27:23.669Z,13.80
2018-09-29T10:32:27.212Z,13.90
2018-09-29T10:37:30.599Z,13.90
2018-09-29T10:42:33.821Z,13.90
2018-09-29T10:47:37.028Z,14.20
2018-09-29T10:52:40.599Z,14.50
2018-09-29T10:57:43.786Z,14.60
2018-09-29T11:02:46.955Z,14.30
2018-09-29T11:07:50.156Z,14.50
2018-09-29T11:12:53.198Z,14.30
2018-09-29T11:17:56.406Z,14.70
2018-09-29T11:23:00.008Z,14.70
2018-09-29T11:28:03.490Z,14.50
2018-09-29T11:33:07.760Z,14.70
2018-09-29T11:38:11.932Z,14.80
2018-09-29T11:43:15.582Z,14.60
2018-09-29T11:48:19.094Z,15.00
2018-09-29T11:53:22.178Z,15.10
2018-09-29T11:58:25.222Z,15.30
2018-09-29T12:03:28.308Z,15.60
2018-09-29T12:08:31.569Z,15.40
2018-09-29T12:13:34.708Z,15.20
2018-09-29T12:18:37.931Z,15.20
2018-09-29T12:23:41.034Z,15.20
2018-09-29T12:28:44.082Z,15.40
2018-09-29T12:33:47.287Z,15.50
2018-09-29T12:38:50.364Z,15.70
2018-09-29T12:43:54.073Z,15.50
2018-09-29T12:48:57.110Z,15.80
2018-09-29T12:54:00.217Z,15.70
2018-09-29T12:59:03.318Z,15.80
2018-09-29T13:04:06.322Z,15.80
2018-09-29T13:09:09.390Z,15.80
2018-09-29T13:14:12.391Z,15.90
2018-09-29T13:19:15.476Z,16.10
2018-09-29T13:24:18.788Z,16.20
2018-09-29T13:29:22.181Z,16.30
2018-09-29T13:34:25.227Z,16.20
2018-09-29T13:39:28.262Z,16.40
2018-09-29T13:44:31.280Z,16.10
2018-09-29T13:49:34.318Z,16.20
2018-09-29T13:54:38.052Z,16.40
2018-09-29T13:59:41.312Z,16.70
2018-09-29T14:04:44.370Z,16.40
2018-09-29T14:09:47.557Z,16.60
2018-09-29T14:14:50.612Z,16.40
2018-09-29T14:19:53.726Z,16.50
2018-09-29T14:24:56.932Z,16.50
2018-09-29T14:30:00.075Z,16.50
2018-09-29T14:35:03.150Z,16.60
2018-09-29T14:40:06.592Z,16.80
2018-09-29T14:45:09.685Z,16.60
2018-09-29T14:50:12.796Z,16.80
2018-09-29T14:55:15.944Z,16.80
2018-09-29T15:00:19.049Z,16.70
2018-09-29T15:05:22.114Z,16.70
2018-09-29T15:10:25.344Z,16.80
2018-09-29T15:15:28.663Z,16.70
2018-09-29T15:20:32.367Z,16.60
2018-09-29T15:25:35.377Z,16.60
2018-09-29T15:30:38.369Z,16.50
2018-09-29T15:35:41.379Z,16.50
2018-09-29T15:40:44.426Z,16.40
2018-09-29T15:45:47.729Z,16.40
2018-09-29T15:50:50.784Z,16.40
2018-09-29T15:55:53.924Z,16.40
2018-09-29T16:00:57.015Z,16.30
2018-09-29T16:06:00.045Z,16.20
2018-09-29T16:11:03.219Z,16.20
2018-09-29T16:16:06.420Z,16.10
2018-09-29T16:21:09.507Z,16.00
2018-09-29T16:26:12.684Z,15.80
2018-09-29T16:31:15.923Z,15.70
2018-09-29T16:36:18.907Z,15.60
2018-09-29T16:41:22.490Z,15.50
2018-09-29T16:46:25.559Z,15.40
2018-09-29T16:51:28.730Z,15.30
2018-09-29T16:56:31.817Z,15.10
2018-09-29T17:01:34.953Z,14.80
2018-09-29T17:06:38.140Z,14.40
2018-09-29T17:11:41.948Z,14.10
2018-09-29T17:16:45.198Z,14.00
2018-09-29T17:21:48.417Z,14.00
2018-09-29T17:26:51.559Z,13.60
2018-09-29T17:31:54.652Z,13.60
2018-09-29T17:36:57.773Z,13.50
2018-09-29T17:42:00.975Z,13.50
2018-09-29T17:47:04.536Z,13.20
2018-09-29T17:52:07.845Z,12.50
2018-09-29T17:57:10.958Z,12.20
2018-09-29T18:02:14.195Z,12.00
2018-09-29T18:07:17.296Z,11.80
2018-09-29T18:12:20.411Z,11.80
2018-09-29T18:17:23.456Z,11.80
2018-09-29T18:22:26.570Z,11.60
2018-09-29T18:27:29.656Z,11.40
2018-09-29T18:32:32.742Z,11.20
2018-09-29T18:37:35.793Z,11.10
2018-09-29T18:42:38.979Z,10.90
2018-09-29T18:47:42.304Z,10.70
2018-09-29T18:52:45.367Z,10.60
2018-09-29T18:57:48.452Z,10.70
2018-09-29T19:02:51.775Z,10.60
2018-09-29T19:07:55.053Z,10.50
2018-09-29T19:12:58.161Z,10.60
2018-09-29T19:18:01.232Z,10.50
2018-09-29T19:23:04.569Z,10.50
2018-09-29T19:28:07.853Z,10.30
2018-09-29T19:33:11.092Z,10.30
2018-09-29T19:38:14.312Z,10.40
2018-09-29T19:43:17.421Z,10.40
2018-09-29T19:48:20.465Z,10.30
2018-09-29T19:53:23.549Z,10.30
2018-09-29T19:58:26.574Z,10.20
2018-09-29T20:03:29.753Z,9.90
2018-09-29T20:08:32.812Z,9.70
2018-09-29T20:13:36.027Z,9.60
2018-09-29T20:18:39.151Z,9.40
2018-09-29T20:23:42.194Z,9.40
2018-09-29T20:28:45.394Z,9.30
2018-09-29T20:33:48.450Z,9.30
2018-09-29T20:38:51.565Z,9.20
2018-09-29T20:43:54.624Z,9.30
2018-09-29T20:48:57.679Z,9.20
2018-09-29T20:54:00.711Z,9.00
2018-09-29T20:59:03.788Z,8.90
2018-09-29T21:04:07.091Z,8.70
2018-09-29T21:09:10.376Z,8.80
2018-09-29T21:14:13.593Z,8.80
2018-09-29T21:19:16.615Z,8.70
2018-09-29T21:24:19.666Z,8.50
2018-09-29T21:29:23.266Z,8.30
2018-09-29T21:34:26.631Z,8.30
2018-09-29T21:39:29.661Z,8.20
2018-09-29T21:44:32.702Z,8.30
2018-09-29T21:49:35.800Z,8.40
2018-09-29T21:54:39.696Z,8.40
2018-09-29T21:59:42.767Z,8.40
2018-09-29T22:04:45.852Z,8.20
2018-09-29T22:09:49.106Z,7.90
2018-09-29T22:14:52.258Z,7.80
2018-09-29T22:19:55.287Z,7.60
2018-09-29T22:24:58.559Z,7.50
2018-09-29T22:30:01.659Z,7.50
2018-09-29T22:35:04.759Z,7.50
2018-09-29T22:40:07.816Z,7.40
2018-09-29T22:45:10.880Z,7.40
2018-09-29T22:50:13.899Z,7.50
2018-09-29T22:55:16.948Z,7.40
2018-09-29T23:00:20.050Z,7.40
2018-09-29T23:05:23.126Z,7.40
2018-09-29T23:10:26.142Z,7.30
2018-09-29T23:15:29.206Z,7.10
2018-09-29T23:20:32.217Z,7.30
2018-09-29T23:25:35.255Z,7.30
2018-09-29T23:30:38.351Z,7.20
2018-09-29T23:35:41.555Z,7.10
2018-09-29T23:40:44.556Z,7.00
2018-09-29T23:45:47.876Z,6.90
2018-09-29T23:50:50.878Z,6.90
2018-09-29T23:55:53.952Z,6.90
